Time;durP1;ratioP1;P1;durP2;ratioP2;P2;SDS_P1;SDS_P2;PMS_P1;PMS_P2;Temp;Humidity;BMP_temperature;BMP_pressure;BME280_temperature;BME280_humidity;BME280_pressure;Samples;Min_cycle;Max_cycle;Signal;HPM_P1;HPM_P2
2023/07/12 00:02:10;;;;;;;;;;;20.40;76.50;;;;;;5074763;28;20295;-34
2023/07/12 00:04:36;;;;;;;;;;;20.40;76.60;;;;;;5074672;28;19920;-36
2023/07/12 00:07:01;;;;;;;;;;;20.40;76.70;;;;;;5074557;28;20426;-34
2023/07/12 00:09:26;;;;;;;;;;;20.30;76.60;;;;;;5074564;28;19913;-34
2023/07/12 00:11:52;;;;;;;;;;;20.40;76.50;;;;;;5074326;28;19913;-33
2023/07/12 00:14:17;;;;;;;;;;;20.40;76.50;;;;;;5074380;28;19917;-35
2023/07/12 00:16:43;;;;;;;;;;;20.40;76.50;;;;;;5074367;28;19962;-35
2023/07/12 00:19:13;;;;;;;;;;;20.40;76.60;;;;;;5074635;28;19913;-34
2023/07/12 00:21:39;;;;;;;;;;;20.40;76.70;;;;;;5074259;28;19919;-34
2023/07/12 00:24:05;;;;;;;;;;;20.40;76.70;;;;;;5074532;28;19988;-34
2023/07/12 00:26:30;;;;;;;;;;;20.30;76.70;;;;;;5074172;28;20324;-34
2023/07/12 00:28:56;;;;;;;;;;;20.30;76.70;;;;;;5073158;28;19912;-35
2023/07/12 00:31:22;;;;;;;;;;;20.30;76.80;;;;;;5072932;28;19920;-34
2023/07/12 00:33:47;;;;;;;;;;;20.30;76.90;;;;;;5074129;28;19966;-35
2023/07/12 00:36:23;;;;;;;;;;;20.30;76.80;;;;;;5074109;28;19912;-34
2023/07/12 00:38:49;;;;;;;;;;;20.20;76.90;;;;;;5074097;28;20444;-36
2023/07/12 00:41:15;;;;;;;;;;;20.20;76.80;;;;;;5074034;28;19917;-34
2023/07/12 00:43:43;;;;;;;;;;;20.20;76.90;;;;;;5074294;28;19986;-36
2023/07/12 00:46:29;;;;;;;;;;;20.10;77.20;;;;;;5074151;28;20371;-35
2023/07/12 00:48:54;;;;;;;;;;;20.10;77.40;;;;;;5073599;28;19939;-40
2023/07/12 00:51:36;;;;;;;;;;;20.00;77.40;;;;;;5073898;28;19916;-34
2023/07/12 00:54:13;;;;;;;;;;;20.00;77.50;;;;;;5073492;28;19916;-33
2023/07/12 00:56:39;;;;;;;;;;;20.00;77.60;;;;;;5073704;28;19999;-35
2023/07/12 00:59:07;;;;;;;;;;;19.90;77.60;;;;;;5073636;28;20339;-34
2023/07/12 01:01:35;;;;;;;;;;;20.00;78.30;;;;;;5073828;28;19919;-35
2023/07/12 01:04:02;;;;;;;;;;;20.00;77.70;;;;;;5073529;28;19913;-35
2023/07/12 01:06:28;;;;;;;;;;;19.90;77.80;;;;;;5073574;28;20289;-35
2023/07/12 01:08:54;;;;;;;;;;;19.90;77.80;;;;;;5073336;28;19919;-34
2023/07/12 01:11:21;;;;;;;;;;;19.90;77.90;;;;;;5073459;28;20342;-35
2023/07/12 01:13:48;;;;;;;;;;;19.80;77.90;;;;;;5073539;28;19943;-35
2023/07/12 01:16:15;;;;;;;;;;;19.70;78.00;;;;;;5073381;28;20664;-35
2023/07/12 01:18:41;;;;;;;;;;;19.70;78.10;;;;;;5073447;28;19912;-36
2023/07/12 01:21:09;;;;;;;;;;;19.70;78.20;;;;;;5073174;28;20388;-35
2023/07/12 01:23:35;;;;;;;;;;;19.70;78.20;;;;;;5073596;28;19935;-35
2023/07/12 01:26:20;;;;;;;;;;;19.70;78.30;;;;;;5073542;28;19913;-36
2023/07/12 01:28:48;;;;;;;;;;;19.60;78.30;;;;;;5055303;28;20372;-34
2023/07/12 01:31:14;;;;;;;;;;;19.60;78.20;;;;;;5072927;28;20403;-34
2023/07/12 01:33:39;;;;;;;;;;;19.60;78.20;;;;;;5073001;28;19916;-35
2023/07/12 01:36:05;;;;;;;;;;;19.50;78.40;;;;;;5073140;28;19917;-34
2023/07/12 01:38:31;;;;;;;;;;;19.50;78.50;;;;;;5072946;28;19912;-36
2023/07/12 01:40:56;;;;;;;;;;;19.50;78.50;;;;;;5073120;28;19958;-33
2023/07/12 01:43:22;;;;;;;;;;;19.40;78.50;;;;;;5072780;28;19912;-34
2023/07/12 01:45:47;;;;;;;;;;;19.40;78.50;;;;;;5072851;28;19916;-34
2023/07/12 01:48:13;;;;;;;;;;;19.40;78.90;;;;;;5072830;28;19944;-36
2023/07/12 01:50:38;;;;;;;;;;;19.40;78.60;;;;;;5072689;28;20257;-37
2023/07/12 01:53:04;;;;;;;;;;;19.30;79.40;;;;;;5072598;28;19916;-35
2023/07/12 01:55:29;;;;;;;;;;;19.30;79.00;;;;;;5072793;28;20316;-34
2023/07/12 01:57:55;;;;;;;;;;;19.20;79.20;;;;;;5072940;28;20003;-36
2023/07/12 02:00:20;;;;;;;;;;;19.20;79.30;;;;;;5072624;28;20632;-34
2023/07/12 02:02:46;;;;;;;;;;;19.10;79.50;;;;;;5072886;28;19917;-35
2023/07/12 02:05:11;;;;;;;;;;;19.00;79.50;;;;;;5072693;28;20038;-34
2023/07/12 02:07:37;;;;;;;;;;;19.00;79.40;;;;;;5072757;28;19913;-35
2023/07/12 02:10:13;;;;;;;;;;;19.00;79.50;;;;;;5072576;28;19966;-36
2023/07/12 02:12:39;;;;;;;;;;;18.90;80.10;;;;;;5072636;28;19935;-34
2023/07/12 02:15:05;;;;;;;;;;;18.90;79.50;;;;;;5072822;28;19913;-35
2023/07/12 02:17:31;;;;;;;;;;;18.90;79.40;;;;;;5072515;28;20092;-33
2023/07/12 02:19:56;;;;;;;;;;;19.00;79.30;;;;;;5072554;28;19913;-34
2023/07/12 02:22:22;;;;;;;;;;;19.10;79.20;;;;;;5072509;28;19912;-35
2023/07/12 02:24:47;;;;;;;;;;;19.10;79.00;;;;;;5072729;28;19916;-36
2023/07/12 02:27:13;;;;;;;;;;;19.10;78.90;;;;;;5072602;28;19919;-35
2023/07/12 02:29:38;;;;;;;;;;;19.20;78.90;;;;;;5072379;28;20253;-43
2023/07/12 02:32:04;;;;;;;;;;;19.20;78.90;;;;;;5072502;28;20567;-34
2023/07/12 02:34:29;;;;;;;;;;;19.10;78.90;;;;;;5072368;28;19916;-36
2023/07/12 02:36:55;;;;;;;;;;;19.10;78.90;;;;;;5072546;28;20543;-34
2023/07/12 02:39:20;;;;;;;;;;;19.10;78.90;;;;;;5072409;28;19916;-36
2023/07/12 02:41:46;;;;;;;;;;;19.10;78.90;;;;;;5072206;28;19951;-34
2023/07/12 02:44:11;;;;;;;;;;;19.10;78.90;;;;;;5072150;28;19912;-35
2023/07/12 02:46:37;;;;;;;;;;;19.10;78.90;;;;;;5072311;28;19963;-35
2023/07/12 02:49:02;;;;;;;;;;;19.10;79.10;;;;;;5071041;28;19923;-35
2023/07/12 02:51:28;;;;;;;;;;;19.00;79.20;;;;;;5072242;28;19919;-35
2023/07/12 02:53:53;;;;;;;;;;;19.00;79.20;;;;;;5073041;28;20331;-35
2023/07/12 02:56:19;;;;;;;;;;;19.00;79.30;;;;;;5076017;28;19913;-35
2023/07/12 02:58:44;;;;;;;;;;;19.00;79.30;;;;;;5075773;28;19920;-36
2023/07/12 03:01:11;;;;;;;;;;;19.00;79.20;;;;;;5075782;28;19938;-38
2023/07/12 03:03:36;;;;;;;;;;;19.00;79.20;;;;;;5075807;28;19916;-34
2023/07/12 03:06:03;;;;;;;;;;;19.00;79.20;;;;;;5076132;28;19912;-37
2023/07/12 03:08:29;;;;;;;;;;;19.00;79.20;;;;;;5076120;28;19916;-35
2023/07/12 03:10:56;;;;;;;;;;;18.90;79.10;;;;;;5076044;28;19931;-41
2023/07/12 03:13:22;;;;;;;;;;;18.90;79.10;;;;;;5075654;28;19916;-35
2023/07/12 03:15:47;;;;;;;;;;;18.90;79.20;;;;;;5075616;28;19975;-35
2023/07/12 03:18:13;;;;;;;;;;;18.90;79.20;;;;;;5075856;28;19913;-36
2023/07/12 03:20:38;;;;;;;;;;;18.80;79.10;;;;;;5075969;28;19919;-35
2023/07/12 03:23:04;;;;;;;;;;;18.80;79.20;;;;;;5075601;28;19912;-33
2023/07/12 03:25:29;;;;;;;;;;;18.90;79.20;;;;;;5075828;28;20371;-34
2023/07/12 03:27:55;;;;;;;;;;;18.80;79.10;;;;;;5074382;28;19917;-36
2023/07/12 03:30:20;;;;;;;;;;;18.90;79.10;;;;;;5074084;28;19921;-37
2023/07/12 03:32:46;;;;;;;;;;;18.90;79.00;;;;;;5075333;28;19966;-33
2023/07/12 03:35:12;;;;;;;;;;;18.90;79.00;;;;;;5075408;28;19958;-37
2023/07/12 03:37:37;;;;;;;;;;;18.90;79.00;;;;;;5075501;28;19912;-36
2023/07/12 03:40:03;;;;;;;;;;;18.90;79.30;;;;;;5075507;28;20387;-35
2023/07/12 03:42:29;;;;;;;;;;;18.90;79.40;;;;;;5073984;28;19912;-36
2023/07/12 03:44:54;;;;;;;;;;;18.80;79.50;;;;;;5075147;28;19935;-34
2023/07/12 03:47:20;;;;;;;;;;;18.70;79.40;;;;;;5073920;28;19909;-44
2023/07/12 03:49:45;;;;;;;;;;;18.70;79.40;;;;;;5075092;28;19917;-45
2023/07/12 03:52:11;;;;;;;;;;;18.70;79.60;;;;;;5075292;28;20284;-35
2023/07/12 03:54:36;;;;;;;;;;;18.60;79.80;;;;;;5074893;28;19916;-35
2023/07/12 03:57:02;;;;;;;;;;;18.60;79.90;;;;;;5074962;28;19908;-36
2023/07/12 03:59:27;;;;;;;;;;;18.50;79.90;;;;;;5073778;28;20410;-34
2023/07/12 04:01:53;;;;;;;;;;;18.50;79.80;;;;;;5074925;28;19915;-36
2023/07/12 04:04:18;;;;;;;;;;;18.60;79.80;;;;;;5074733;28;19916;-35
2023/07/12 04:06:44;;;;;;;;;;;18.60;79.70;;;;;;5073750;28;19909;-35
2023/07/12 04:09:09;;;;;;;;;;;18.60;79.70;;;;;;5074883;28;19915;-34
2023/07/12 04:11:37;;;;;;;;;;;18.60;79.90;;;;;;5074577;28;19916;-35
2023/07/12 04:14:02;;;;;;;;;;;18.50;79.80;;;;;;5074979;28;19958;-36
2023/07/12 04:16:28;;;;;;;;;;;18.50;79.80;;;;;;5074528;28;19913;-35
2023/07/12 04:18:54;;;;;;;;;;;18.50;79.80;;;;;;5074724;28;20013;-35
2023/07/12 04:21:20;;;;;;;;;;;18.50;79.80;;;;;;5074578;28;19908;-35
2023/07/12 04:23:46;;;;;;;;;;;18.50;79.80;;;;;;5074528;28;19915;-37
2023/07/12 04:26:12;;;;;;;;;;;18.50;79.90;;;;;;5074510;28;19908;-36
2023/07/12 04:28:38;;;;;;;;;;;18.40;79.90;;;;;;5074260;28;19920;-36
2023/07/12 04:31:05;;;;;;;;;;;18.40;79.90;;;;;;5074131;28;19955;-37
2023/07/12 04:33:31;;;;;;;;;;;18.40;79.80;;;;;;5073009;28;19926;-34
2023/07/12 04:35:56;;;;;;;;;;;18.40;79.80;;;;;;5074261;28;20375;-33
2023/07/12 04:38:22;;;;;;;;;;;18.50;79.80;;;;;;5074368;28;20044;-35
2023/07/12 04:40:54;;;;;;;;;;;18.50;79.90;;;;;;5074277;28;19915;-33
2023/07/12 04:43:19;;;;;;;;;;;18.40;79.80;;;;;;5072766;28;19916;-41
2023/07/12 04:45:45;;;;;;;;;;;18.50;79.80;;;;;;5074173;28;19908;-35
2023/07/12 04:48:10;;;;;;;;;;;18.50;79.80;;;;;;5074034;28;19916;-44
2023/07/12 04:50:36;;;;;;;;;;;18.50;79.80;;;;;;5073894;28;19913;-35
2023/07/12 04:53:02;;;;;;;;;;;18.50;79.70;;;;;;5073952;28;19919;-36
2023/07/12 04:55:29;;;;;;;;;;;18.50;79.60;;;;;;5073825;28;19908;-35
2023/07/12 04:57:54;;;;;;;;;;;18.50;79.60;;;;;;5074187;28;19913;-34
2023/07/12 05:00:20;;;;;;;;;;;18.50;79.60;;;;;;5073881;28;19908;-34
2023/07/12 05:02:48;;;;;;;;;;;18.50;79.50;;;;;;5073680;28;19965;-35
2023/07/12 05:05:14;;;;;;;;;;;18.50;79.50;;;;;;5073659;28;19930;-35
2023/07/12 05:07:40;;;;;;;;;;;18.60;79.40;;;;;;5073471;28;20007;-34
2023/07/12 05:10:06;;;;;;;;;;;18.60;79.40;;;;;;5073554;28;19915;-39
2023/07/12 05:12:32;;;;;;;;;;;18.60;79.50;;;;;;5073669;28;19909;-34
2023/07/12 05:14:58;;;;;;;;;;;18.60;79.40;;;;;;5073593;28;19997;-37
2023/07/12 05:17:23;;;;;;;;;;;18.60;79.40;;;;;;5073367;28;19967;-36
2023/07/12 05:19:49;;;;;;;;;;;18.60;79.40;;;;;;5073466;28;19908;-34
2023/07/12 05:22:14;;;;;;;;;;;18.50;79.70;;;;;;5073416;28;19955;-39
2023/07/12 05:24:40;;;;;;;;;;;18.50;79.70;;;;;;5073988;28;19908;-36
2023/07/12 05:27:05;;;;;;;;;;;18.50;79.60;;;;;;5073517;28;19912;-37
2023/07/12 05:29:33;;;;;;;;;;;18.60;79.70;;;;;;5073411;28;19994;-33
2023/07/12 05:31:59;;;;;;;;;;;18.60;79.70;;;;;;5073538;28;20406;-36
2023/07/12 05:34:24;;;;;;;;;;;18.60;79.60;;;;;;5073231;28;20079;-34
2023/07/12 05:36:50;;;;;;;;;;;18.70;79.40;;;;;;5073182;28;20352;-35
2023/07/12 05:39:15;;;;;;;;;;;18.70;79.20;;;;;;5073277;28;20014;-34
2023/07/12 05:41:41;;;;;;;;;;;18.80;79.80;;;;;;5073167;28;20342;-41
2023/07/12 05:44:06;;;;;;;;;;;18.80;79.10;;;;;;5073230;28;20011;-35
2023/07/12 05:46:32;;;;;;;;;;;18.80;79.10;;;;;;5073128;28;19962;-35
2023/07/12 05:48:57;;;;;;;;;;;18.80;79.00;;;;;;5072953;28;19916;-35
2023/07/12 05:51:23;;;;;;;;;;;18.80;79.00;;;;;;5073022;28;19915;-36
2023/07/12 05:53:48;;;;;;;;;;;18.80;78.90;;;;;;5073086;28;20275;-36
2023/07/12 05:56:14;;;;;;;;;;;18.90;78.90;;;;;;5072925;28;19908;-34
2023/07/12 05:58:39;;;;;;;;;;;19.00;78.70;;;;;;5072968;28;20258;-36
2023/07/12 06:01:05;;;;;;;;;;;19.00;78.70;;;;;;5072920;28;19908;-34
2023/07/12 06:03:32;;;;;;;;;;;19.00;78.60;;;;;;5072634;28;19939;-38
2023/07/12 06:05:58;;;;;;;;;;;19.00;78.50;;;;;;5072917;28;19913;-35
2023/07/12 06:08:24;;;;;;;;;;;19.10;78.50;;;;;;5072851;28;19958;-34
2023/07/12 06:10:49;;;;;;;;;;;19.00;78.50;;;;;;5072622;28;19995;-35
2023/07/12 06:13:15;;;;;;;;;;;19.00;78.50;;;;;;5072485;28;20007;-34
2023/07/12 06:15:41;;;;;;;;;;;19.00;78.50;;;;;;5072582;28;19912;-35
2023/07/12 06:18:07;;;;;;;;;;;19.00;78.50;;;;;;5072613;28;20395;-32
2023/07/12 06:20:32;;;;;;;;;;;19.00;78.40;;;;;;5072548;28;19908;-35
2023/07/12 06:22:58;;;;;;;;;;;19.00;78.40;;;;;;5072725;28;19944;-33
2023/07/12 06:25:24;;;;;;;;;;;19.00;78.40;;;;;;5072969;28;19909;-35
2023/07/12 06:27:49;;;;;;;;;;;19.00;78.40;;;;;;5072425;28;20394;-34
2023/07/12 06:30:18;;;;;;;;;;;19.00;78.40;;;;;;5075346;28;19920;-31
2023/07/12 06:32:44;;;;;;;;;;;19.10;78.30;;;;;;5074949;28;19977;-31
2023/07/12 06:35:09;;;;;;;;;;;19.10;78.20;;;;;;5076285;28;20447;-42
2023/07/12 06:37:35;;;;;;;;;;;19.20;78.00;;;;;;5076392;28;19908;-35
2023/07/12 06:40:00;;;;;;;;;;;19.20;77.90;;;;;;5076630;28;19909;-34
2023/07/12 06:42:26;;;;;;;;;;;19.30;77.90;;;;;;5076371;28;19912;-27
2023/07/12 06:44:52;;;;;;;;;;;19.40;77.60;;;;;;5076369;28;19912;-27
2023/07/12 06:47:17;;;;;;;;;;;19.40;77.50;;;;;;5076255;28;19935;-27
2023/07/12 06:49:43;;;;;;;;;;;19.50;77.40;;;;;;5076435;28;19908;-26
2023/07/12 06:52:10;;;;;;;;;;;19.50;77.40;;;;;;5076257;28;20364;-29
2023/07/12 06:54:35;;;;;;;;;;;19.60;77.20;;;;;;5076325;28;20352;-27
2023/07/12 06:57:01;;;;;;;;;;;19.60;77.10;;;;;;5076034;28;19909;-27
2023/07/12 06:59:26;;;;;;;;;;;19.50;77.10;;;;;;5076045;28;19915;-34
2023/07/12 07:01:52;;;;;;;;;;;19.50;77.30;;;;;;5075838;28;19916;-30
2023/07/12 07:04:18;;;;;;;;;;;19.50;77.50;;;;;;5075877;28;19998;-26
2023/07/12 07:06:44;;;;;;;;;;;19.40;77.30;;;;;;5076093;28;20336;-32
2023/07/12 07:09:10;;;;;;;;;;;19.40;77.30;;;;;;5075682;28;19915;-27
2023/07/12 07:11:35;;;;;;;;;;;19.40;77.20;;;;;;5075713;28;19997;-25
2023/07/12 07:14:01;;;;;;;;;;;19.50;77.20;;;;;;5075661;28;19919;-36
2023/07/12 07:16:26;;;;;;;;;;;19.60;77.00;;;;;;5075565;28;19912;-28
2023/07/12 07:18:52;;;;;;;;;;;19.70;76.90;;;;;;5075492;28;19932;-28
2023/07/12 07:21:17;;;;;;;;;;;19.70;76.70;;;;;;5075685;28;19912;-27
2023/07/12 07:23:43;;;;;;;;;;;19.70;76.60;;;;;;5075762;28;19908;-28
2023/07/12 07:26:10;;;;;;;;;;;19.70;76.60;;;;;;5075447;28;20434;-32
2023/07/12 07:28:36;;;;;;;;;;;19.80;76.50;;;;;;5075291;28;20334;-27
2023/07/12 07:31:02;;;;;;;;;;;19.90;76.50;;;;;;5075124;28;19943;-27
2023/07/12 07:33:27;;;;;;;;;;;20.00;76.30;;;;;;5075421;28;20245;-26
2023/07/12 07:35:56;;;;;;;;;;;20.10;76.00;;;;;;5075523;28;19909;-42
2023/07/12 07:38:26;;;;;;;;;;;20.10;75.90;;;;;;5075456;28;19915;-41
2023/07/12 07:40:53;;;;;;;;;;;20.10;75.80;;;;;;5075312;28;19947;-39
2023/07/12 07:43:18;;;;;;;;;;;20.10;75.90;;;;;;5075191;28;19953;-41
2023/07/12 07:45:44;;;;;;;;;;;20.00;75.80;;;;;;5073558;28;20456;-41
2023/07/12 07:48:10;;;;;;;;;;;20.00;75.80;;;;;;5075104;28;19915;-41
2023/07/12 07:50:36;;;;;;;;;;;20.00;75.80;;;;;;5075021;28;20367;-39
2023/07/12 07:53:02;;;;;;;;;;;20.00;75.80;;;;;;5074897;28;19913;-41
2023/07/12 07:55:27;;;;;;;;;;;20.00;75.80;;;;;;5074687;28;19909;-42
2023/07/12 07:57:53;;;;;;;;;;;19.90;75.80;;;;;;5073427;28;19908;-41
2023/07/12 08:00:18;;;;;;;;;;;19.90;75.80;;;;;;5074702;28;19909;-43
2023/07/12 08:02:44;;;;;;;;;;;19.90;75.70;;;;;;5074458;28;19913;-38
2023/07/12 08:05:10;;;;;;;;;;;19.90;75.60;;;;;;5074781;28;19913;-35
2023/07/12 08:07:39;;;;;;;;;;;20.10;75.70;;;;;;5075098;28;20012;-34
2023/07/12 08:10:06;;;;;;;;;;;20.10;75.50;;;;;;5074728;28;19909;-34
2023/07/12 08:12:32;;;;;;;;;;;20.20;75.10;;;;;;5074781;28;19951;-33
2023/07/12 08:14:57;;;;;;;;;;;20.20;75.00;;;;;;5074949;28;19951;-33
2023/07/12 08:17:23;;;;;;;;;;;20.20;74.90;;;;;;5074590;28;19908;-35
2023/07/12 08:19:50;;;;;;;;;;;20.20;74.80;;;;;;5074660;28;19952;-33
2023/07/12 08:22:19;;;;;;;;;;;20.20;74.70;;;;;;5074821;28;19912;-33
2023/07/12 08:24:46;;;;;;;;;;;20.20;74.80;;;;;;5074464;28;19927;-33
2023/07/12 08:27:11;;;;;;;;;;;20.10;74.90;;;;;;5073094;28;19909;-35
2023/07/12 08:29:37;;;;;;;;;;;20.20;74.90;;;;;;5074124;28;19940;-35
2023/07/12 08:32:02;;;;;;;;;;;20.30;74.80;;;;;;5074400;28;20441;-35
2023/07/12 08:34:28;;;;;;;;;;;20.40;74.60;;;;;;5074156;28;19920;-35
2023/07/12 08:36:53;;;;;;;;;;;20.40;74.60;;;;;;5073302;28;19916;-44
2023/07/12 08:39:19;;;;;;;;;;;20.50;74.70;;;;;;5074159;28;20057;-35
2023/07/12 08:41:44;;;;;;;;;;;20.50;74.50;;;;;;5074258;28;20057;-36
2023/07/12 08:44:11;;;;;;;;;;;20.60;74.40;;;;;;5074292;28;19916;-35
2023/07/12 08:46:40;;;;;;;;;;;20.70;74.80;;;;;;5073961;28;19915;-34
2023/07/12 08:49:07;;;;;;;;;;;20.70;74.00;;;;;;5072659;28;19999;-34
2023/07/12 08:51:36;;;;;;;;;;;20.90;73.80;;;;;;5073489;28;19942;-35
2023/07/12 08:54:03;;;;;;;;;;;21.10;73.60;;;;;;5073908;28;20427;-34
2023/07/12 08:56:28;;;;;;;;;;;21.20;73.30;;;;;;5073747;28;19915;-34
2023/07/12 08:58:54;;;;;;;;;;;21.10;72.80;;;;;;5073866;28;20240;-37
2023/07/12 09:01:53;;;;;;;;;;;21.10;72.90;;;;;;5073766;28;20249;-33
2023/07/12 09:04:22;;;;;;;;;;;21.10;72.90;;;;;;5072431;28;19913;-33
2023/07/12 09:06:48;;;;;;;;;;;21.20;71.60;;;;;;5073839;28;19991;-33
2023/07/12 09:09:14;;;;;;;;;;;21.20;71.40;;;;;;5073454;28;20007;-43
2023/07/12 09:11:39;;;;;;;;;;;21.20;71.60;;;;;;5073587;28;19916;-34
2023/07/12 09:14:05;;;;;;;;;;;21.20;72.30;;;;;;5072096;28;19913;-36
2023/07/12 09:16:34;;;;;;;;;;;21.30;71.70;;;;;;5073318;28;20003;-36
2023/07/12 09:19:11;;;;;;;;;;;21.40;71.50;;;;;;5073659;28;19988;-42
2023/07/12 09:21:37;;;;;;;;;;;21.50;71.30;;;;;;5073157;28;19913;-34
2023/07/12 09:24:09;;;;;;;;;;;21.60;69.90;;;;;;5073468;28;19954;-34
2023/07/12 09:26:35;;;;;;;;;;;21.70;69.90;;;;;;5071811;28;19908;-35
2023/07/12 09:29:24;;;;;;;;;;;21.70;69.40;;;;;;5073151;28;20485;-33
2023/07/12 09:31:51;;;;;;;;;;;21.70;69.30;;;;;;5072447;28;19924;-34
2023/07/12 09:34:24;;;;;;;;;;;21.70;69.90;;;;;;5072904;28;19916;-35
2023/07/12 09:36:54;;;;;;;;;;;21.80;70.00;;;;;;5073299;28;19908;-44
2023/07/12 09:39:19;;;;;;;;;;;21.90;69.50;;;;;;5072936;28;19965;-33
2023/07/12 09:41:47;;;;;;;;;;;21.90;68.20;;;;;;5072898;28;20011;-36
2023/07/12 09:44:14;;;;;;;;;;;21.80;68.90;;;;;;5073007;28;20522;-33
2023/07/12 09:46:46;;;;;;;;;;;21.70;69.00;;;;;;5073034;28;19914;-35
2023/07/12 09:49:20;;;;;;;;;;;21.70;69.20;;;;;;5072925;28;19957;-35
2023/07/12 09:51:48;;;;;;;;;;;21.60;69.20;;;;;;5072909;28;19908;-34
2023/07/12 09:54:29;;;;;;;;;;;21.70;69.00;;;;;;5072924;28;19912;-35
2023/07/12 09:57:10;;;;;;;;;;;21.80;68.90;;;;;;5072789;28;19931;-36
2023/07/12 09:59:47;;;;;;;;;;;21.90;68.60;;;;;;5071743;28;19908;-35
2023/07/12 10:02:23;;;;;;;;;;;21.90;68.50;;;;;;5072894;28;19947;-34
2023/07/12 10:05:00;;;;;;;;;;;22.10;68.40;;;;;;5071855;28;20046;-35
2023/07/12 10:07:33;;;;;;;;;;;22.20;67.70;;;;;;5072713;28;20426;-36
2023/07/12 10:09:58;;;;;;;;;;;22.30;67.30;;;;;;5073192;28;20360;-36
2023/07/12 10:12:37;;;;;;;;;;;22.40;67.20;;;;;;5072621;28;20027;-40
2023/07/12 10:15:03;;;;;;;;;;;22.60;66.10;;;;;;5072425;28;19912;-47
2023/07/12 10:17:36;;;;;;;;;;;22.60;66.10;;;;;;5071363;28;19927;-34
2023/07/12 10:20:02;;;;;;;;;;;22.60;65.70;;;;;;5072548;28;19909;-34
2023/07/12 10:22:33;;;;;;;;;;;22.80;66.20;;;;;;5071526;28;19913;-37
2023/07/12 10:25:00;;;;;;;;;;;22.80;66.00;;;;;;5072730;28;20597;-36
2023/07/12 10:27:32;;;;;;;;;;;22.90;65.40;;;;;;5072593;28;19909;-36
2023/07/12 10:30:09;;;;;;;;;;;22.90;65.20;;;;;;5072347;28;19970;-35
2023/07/12 10:32:40;;;;;;;;;;;22.80;64.50;;;;;;5072722;28;19915;-35
2023/07/12 10:35:15;;;;;;;;;;;22.80;64.80;;;;;;5072530;28;20381;-34
2023/07/12 10:37:45;;;;;;;;;;;22.70;64.10;;;;;;5072535;28;19908;-35
2023/07/12 10:40:18;;;;;;;;;;;22.70;64.50;;;;;;5071159;28;19909;-35
2023/07/12 10:42:49;;;;;;;;;;;22.50;64.40;;;;;;5072752;28;19923;-34
2023/07/12 10:45:19;;;;;;;;;;;22.40;65.90;;;;;;5072882;28;19915;-38
2023/07/12 10:47:47;;;;;;;;;;;22.10;67.90;;;;;;5072759;28;20010;-40
2023/07/12 10:50:20;;;;;;;;;;;21.60;69.10;;;;;;5072488;28;19954;-35
2023/07/12 10:52:55;;;;;;;;;;;21.20;70.40;;;;;;5072467;28;19915;-41
2023/07/12 10:55:35;;;;;;;;;;;20.90;71.40;;;;;;5072540;28;20376;-35
2023/07/12 10:58:19;;;;;;;;;;;20.70;72.50;;;;;;5072741;28;20337;-40
2023/07/12 11:00:49;;;;;;;;;;;20.60;72.50;;;;;;5072655;28;19935;-43
2023/07/12 11:03:16;;;;;;;;;;;20.60;73.80;;;;;;5070824;28;20434;-36
2023/07/12 11:05:57;;;;;;;;;;;20.60;73.30;;;;;;5072428;28;20587;-34
2023/07/12 11:08:31;;;;;;;;;;;20.60;73.90;;;;;;5072752;28;19934;-34
2023/07/12 11:11:00;;;;;;;;;;;20.50;74.10;;;;;;5072229;28;19962;-34
2023/07/12 11:13:32;;;;;;;;;;;20.50;74.20;;;;;;5072018;28;19923;-35
2023/07/12 11:16:18;;;;;;;;;;;20.60;74.30;;;;;;5073434;28;19992;-34
2023/07/12 11:18:52;;;;;;;;;;;20.60;73.80;;;;;;5075536;28;19966;-35
2023/07/12 11:21:39;;;;;;;;;;;20.70;74.00;;;;;;5075648;28;20059;-34
2023/07/12 11:24:23;;;;;;;;;;;20.80;73.50;;;;;;5075699;28;19955;-35
2023/07/12 11:26:59;;;;;;;;;;;20.80;72.90;;;;;;5075564;28;19917;-34
2023/07/12 11:29:25;;;;;;;;;;;20.90;73.20;;;;;;5075738;28;19916;-33
2023/07/12 11:32:00;;;;;;;;;;;21.00;73.00;;;;;;5075261;28;20030;-47
2023/07/12 11:34:26;;;;;;;;;;;21.00;72.50;;;;;;5075544;28;20632;-40
2023/07/12 11:36:53;;;;;;;;;;;21.10;72.00;;;;;;5075396;28;19908;-33
2023/07/12 11:39:20;;;;;;;;;;;21.10;71.90;;;;;;5075204;28;19909;-34
2023/07/12 11:41:52;;;;;;;;;;;21.10;72.10;;;;;;5075605;28;19940;-35
2023/07/12 11:44:18;;;;;;;;;;;21.20;70.60;;;;;;5075181;28;20011;-35
2023/07/12 11:46:44;;;;;;;;;;;21.20;69.30;;;;;;5073838;28;19916;-37
2023/07/12 11:49:18;;;;;;;;;;;21.30;68.50;;;;;;5075645;28;19915;-34
2023/07/12 11:51:45;;;;;;;;;;;21.40;68.80;;;;;;5075326;28;19908;-34
2023/07/12 11:54:20;;;;;;;;;;;21.60;68.60;;;;;;5074814;28;19919;-34
2023/07/12 11:56:46;;;;;;;;;;;21.80;68.50;;;;;;5074962;28;19909;-37
2023/07/12 11:59:13;;;;;;;;;;;22.10;68.50;;;;;;5075235;28;19909;-37
2023/07/12 12:01:38;;;;;;;;;;;22.20;66.70;;;;;;5074874;28;19909;-36
2023/07/12 12:04:04;;;;;;;;;;;22.40;64.70;;;;;;5074914;28;19957;-36
2023/07/12 12:06:30;;;;;;;;;;;22.50;64.00;;;;;;5075004;28;19923;-35
2023/07/12 12:08:56;;;;;;;;;;;22.70;63.70;;;;;;5075133;28;20284;-34
2023/07/12 12:11:25;;;;;;;;;;;22.80;63.70;;;;;;5074872;28;19924;-44
2023/07/12 12:13:52;;;;;;;;;;;22.80;63.60;;;;;;5074849;28;20038;-37
2023/07/12 12:16:21;;;;;;;;;;;22.80;63.10;;;;;;5074699;28;19908;-36
2023/07/12 12:18:51;;;;;;;;;;;22.90;62.40;;;;;;5074778;28;19999;-35
2023/07/12 12:21:17;;;;;;;;;;;22.90;60.90;;;;;;5074766;28;19935;-34
2023/07/12 12:23:47;;;;;;;;;;;22.90;61.90;;;;;;5074919;28;19908;-39
2023/07/12 12:26:21;;;;;;;;;;;22.90;61.70;;;;;;5073801;28;19970;-34
2023/07/12 12:28:51;;;;;;;;;;;22.90;62.00;;;;;;5074002;28;19908;-36
2023/07/12 12:31:18;;;;;;;;;;;22.90;61.60;;;;;;5074032;28;20322;-35
2023/07/12 12:33:47;;;;;;;;;;;23.00;60.90;;;;;;5074122;28;19913;-34
2023/07/12 12:36:20;;;;;;;;;;;23.10;61.00;;;;;;5074577;28;19908;-35
2023/07/12 12:38:54;;;;;;;;;;;23.30;61.40;;;;;;5074155;28;19909;-34
2023/07/12 12:41:20;;;;;;;;;;;23.50;61.00;;;;;;5074206;28;19938;-35
2023/07/12 12:43:59;;;;;;;;;;;23.70;60.80;;;;;;5074028;28;19912;-38
2023/07/12 12:46:24;;;;;;;;;;;23.80;60.00;;;;;;5074266;28;20314;-35
2023/07/12 12:48:51;;;;;;;;;;;23.90;58.70;;;;;;5074103;28;19916;-36
2023/07/12 12:51:17;;;;;;;;;;;24.00;58.30;;;;;;5074046;28;19912;-34
2023/07/12 12:53:43;;;;;;;;;;;24.00;58.30;;;;;;5073710;28;19919;-37
2023/07/12 12:56:11;;;;;;;;;;;24.00;58.80;;;;;;5073757;28;19908;-40
2023/07/12 12:58:37;;;;;;;;;;;24.10;58.30;;;;;;5073766;28;20359;-35
2023/07/12 13:01:02;;;;;;;;;;;24.10;58.60;;;;;;5073724;28;19998;-35
2023/07/12 13:03:28;;;;;;;;;;;24.10;58.40;;;;;;5073767;28;19908;-36
2023/07/12 13:05:53;;;;;;;;;;;24.10;58.00;;;;;;5073877;28;19908;-36
2023/07/12 13:08:19;;;;;;;;;;;24.10;58.30;;;;;;5073615;28;19908;-36
2023/07/12 13:10:44;;;;;;;;;;;24.20;58.10;;;;;;5073502;28;19912;-37
2023/07/12 13:13:17;;;;;;;;;;;24.20;58.40;;;;;;5072225;28;19915;-35
2023/07/12 13:15:43;;;;;;;;;;;24.30;57.80;;;;;;5073737;28;20355;-35
2023/07/12 13:18:12;;;;;;;;;;;24.40;56.90;;;;;;5073672;28;19962;-55
2023/07/12 13:20:38;;;;;;;;;;;24.40;56.80;;;;;;5073503;28;19908;-44
2023/07/12 13:23:03;;;;;;;;;;;24.50;56.40;;;;;;5073560;28;20423;-34
2023/07/12 13:25:29;;;;;;;;;;;24.50;56.10;;;;;;5073654;28;19912;-35
2023/07/12 13:27:56;;;;;;;;;;;24.60;55.10;;;;;;5073177;28;20344;-36
2023/07/12 13:30:23;;;;;;;;;;;24.70;56.00;;;;;;5072845;28;19927;-33
2023/07/12 13:32:49;;;;;;;;;;;25.00;54.80;;;;;;5073487;28;19935;-34
2023/07/12 13:35:19;;;;;;;;;;;25.20;54.60;;;;;;5073375;28;20375;-37
2023/07/12 13:37:44;;;;;;;;;;;25.30;54.70;;;;;;5072791;28;19912;-35
2023/07/12 13:40:14;;;;;;;;;;;25.40;54.00;;;;;;5073114;28;20289;-37
2023/07/12 13:42:44;;;;;;;;;;;25.40;54.50;;;;;;5072852;28;19909;-34
2023/07/12 13:45:11;;;;;;;;;;;25.40;51.80;;;;;;5072802;28;19944;-34
2023/07/12 13:47:36;;;;;;;;;;;25.40;52.60;;;;;;5072793;28;19919;-35
2023/07/12 13:50:05;;;;;;;;;;;25.50;52.20;;;;;;5072891;28;19953;-35
2023/07/12 13:52:31;;;;;;;;;;;25.50;52.30;;;;;;5072787;28;19920;-34
2023/07/12 13:54:57;;;;;;;;;;;25.50;51.40;;;;;;5073055;28;20257;-37
2023/07/12 13:57:24;;;;;;;;;;;25.50;51.10;;;;;;5072819;28;19938;-34
2023/07/12 13:59:49;;;;;;;;;;;25.50;51.50;;;;;;5073151;28;20248;-35
2023/07/12 14:02:16;;;;;;;;;;;25.50;51.50;;;;;;5072826;28;19908;-52
2023/07/12 14:04:42;;;;;;;;;;;25.60;52.20;;;;;;5072944;28;20383;-35
2023/07/12 14:07:11;;;;;;;;;;;25.70;51.60;;;;;;5072594;28;19916;-36
2023/07/12 14:09:37;;;;;;;;;;;25.80;50.70;;;;;;5072746;28;19920;-34
2023/07/12 14:12:03;;;;;;;;;;;25.70;51.10;;;;;;5072674;28;19908;-35
2023/07/12 14:14:29;;;;;;;;;;;25.70;51.10;;;;;;5072871;28;20312;-34
2023/07/12 14:16:54;;;;;;;;;;;25.70;51.30;;;;;;5072901;28;19909;-36
2023/07/12 14:19:20;;;;;;;;;;;25.90;49.80;;;;;;5072483;28;19919;-41